Time;durP1;ratioP1;P1;durP2;ratioP2;P2;SDS_P1;SDS_P2;PMS_P1;PMS_P2;Temp;Humidity;BMP_temperature;BMP_pressure;BME280_temperature;BME280_humidity;BME280_pressure;Samples;Min_cycle;Max_cycle;Signal;HPM_P1;HPM_P2
2021/12/02 00:00:05;;;;;;;0.30;0.30;;;5.40;99.90;;;;;;5057684;28;20267;-90
2021/12/02 00:02:39;;;;;;;0.30;0.30;;;5.40;99.90;;;;;;5074169;28;20206;-90
2021/12/02 00:05:06;;;;;;;0.30;0.30;;;5.30;99.90;;;;;;5058059;28;20168;-90
2021/12/02 00:07:32;;;;;;;0.40;0.40;;;5.30;99.90;;;;;;5074225;28;20212;-90
2021/12/02 00:09:58;;;;;;;0.47;0.47;;;5.20;99.90;;;;;;5057574;28;20180;-90
2021/12/02 00:13:08;;;;;;;0.40;0.40;;;5.20;99.90;;;;;;5057179;28;20181;-90
2021/12/02 00:23:37;;;;;;;0.57;0.50;;;5.10;99.90;;;;;;5073797;28;20177;-90
2021/12/02 00:26:12;;;;;;;0.40;0.40;;;5.10;99.90;;;;;;5057724;28;20271;-90
2021/12/02 00:28:39;;;;;;;0.40;0.40;;;5.10;99.90;;;;;;5057092;28;20294;-90
2021/12/02 00:31:10;;;;;;;0.93;0.23;;;5.10;99.90;;;;;;5057474;28;20187;-90
2021/12/02 00:33:40;;;;;;;0.50;0.43;;;5.10;99.90;;;;;;5057103;28;20180;-90
2021/12/02 00:39:54;;;;;;;0.40;0.40;;;5.20;99.90;;;;;;5074709;28;20232;-90
2021/12/02 00:42:20;;;;;;;1.10;0.40;;;5.10;99.90;;;;;;5057400;28;20224;-90
2021/12/02 00:44:47;;;;;;;1.17;0.60;;;5.10;99.90;;;;;;5057387;28;20249;-90
2021/12/02 00:47:14;;;;;;;0.50;0.50;;;5.10;99.90;;;;;;5057014;28;20198;-90
2021/12/02 00:49:40;;;;;;;0.40;0.40;;;5.10;99.90;;;;;;5056665;28;20188;-90
2021/12/02 00:52:07;;;;;;;0.60;0.47;;;5.10;99.90;;;;;;5057072;28;20181;-90
2021/12/02 00:54:39;;;;;;;0.40;0.40;;;5.10;99.90;;;;;;5056836;28;20198;-90
2021/12/02 00:57:05;;;;;;;0.50;0.43;;;5.10;99.90;;;;;;5057031;28;20196;-90
2021/12/02 00:59:32;;;;;;;0.30;0.30;;;5.10;99.90;;;;;;5056278;28;20191;-90
2021/12/02 01:01:58;;;;;;;2.77;0.50;;;5.10;99.90;;;;;;5045715;28;20249;-90
2021/12/02 01:04:24;;;;;;;0.50;0.40;;;5.10;99.90;;;;;;5036986;28;20719;-90
2021/12/02 01:06:51;;;;;;;0.60;0.40;;;5.10;99.90;;;;;;5036871;28;20192;-90
2021/12/02 01:09:18;;;;;;;0.30;0.30;;;5.10;99.90;;;;;;5036478;28;20199;-90
2021/12/02 01:11:44;;;;;;;1.00;0.50;;;5.10;99.90;;;;;;5036549;28;20175;-90
2021/12/02 01:14:10;;;;;;;1.43;1.33;;;5.10;99.90;;;;;;5036628;28;20269;-90
2021/12/02 01:16:37;;;;;;;2.67;1.67;;;5.20;99.90;;;;;;5036390;28;20195;-90
2021/12/02 01:19:07;;;;;;;3.10;1.73;;;5.10;99.90;;;;;;5036189;28;20188;-91
2021/12/02 01:21:38;;;;;;;2.57;1.90;;;5.10;99.90;;;;;;5036194;28;20214;-90
2021/12/02 01:24:05;;;;;;;3.10;1.90;;;5.10;99.90;;;;;;5035400;28;20170;-90
2021/12/02 01:26:34;;;;;;;1.87;1.60;;;5.10;99.90;;;;;;5036158;28;20191;-90
2021/12/02 01:29:02;;;;;;;1.60;1.10;;;5.10;99.90;;;;;;5036197;28;20215;-90
2021/12/02 01:31:34;;;;;;;1.40;1.00;;;5.00;99.90;;;;;;5043091;28;20189;-90
2021/12/02 01:34:02;;;;;;;1.17;1.00;;;5.10;99.90;;;;;;5056139;28;20267;-91
2021/12/02 01:36:37;;;;;;;1.60;0.77;;;5.00;99.90;;;;;;5056296;28;20182;-90
2021/12/02 01:39:05;;;;;;;2.27;1.37;;;5.00;99.90;;;;;;5055829;28;20184;-90
2021/12/02 01:41:49;;;;;;;2.00;1.10;;;5.00;99.90;;;;;;5072724;28;20186;-90
2021/12/02 01:44:18;;;;;;;2.40;1.00;;;5.00;99.90;;;;;;5056163;28;20176;-91
2021/12/02 01:46:46;;;;;;;2.07;0.80;;;5.00;99.90;;;;;;5056131;28;20238;-90
2021/12/02 01:49:13;;;;;;;1.50;0.80;;;5.00;99.90;;;;;;5055949;28;20199;-90
2021/12/02 01:51:44;;;;;;;2.93;1.00;;;5.00;99.90;;;;;;5056010;28;20228;-90
2021/12/02 01:54:13;;;;;;;1.70;0.77;;;5.00;99.90;;;;;;5055745;28;20190;-90
2021/12/02 01:57:07;;;;;;;0.80;0.60;;;5.00;99.90;;;;;;5055948;28;20180;-90
2021/12/02 01:59:36;;;;;;;1.13;0.50;;;5.00;99.90;;;;;;5055682;28;20162;-90
2021/12/02 02:02:05;;;;;;;0.50;0.50;;;5.10;99.90;;;;;;5055877;28;20194;-90
2021/12/02 02:04:32;;;;;;;1.23;0.63;;;5.00;99.90;;;;;;5055879;28;20183;-90
2021/12/02 02:07:03;;;;;;;0.50;0.40;;;5.00;99.90;;;;;;5055420;28;20191;-90
2021/12/02 02:09:33;;;;;;;0.60;0.57;;;5.00;99.90;;;;;;5071855;28;20221;-90
2021/12/02 02:12:04;;;;;;;0.80;0.60;;;5.00;99.90;;;;;;5055464;28;20179;-90
2021/12/02 02:14:30;;;;;;;1.83;0.60;;;4.90;99.90;;;;;;5055641;28;20179;-90
2021/12/02 02:17:00;;;;;;;1.50;0.60;;;4.90;99.90;;;;;;5055550;28;20202;-90
2021/12/02 02:19:30;;;;;;;1.10;0.60;;;4.90;99.90;;;;;;5055174;28;20193;-90
2021/12/02 02:21:56;;;;;;;0.67;0.53;;;4.90;99.90;;;;;;5055424;28;20222;-90
2021/12/02 02:24:22;;;;;;;1.50;0.60;;;4.80;99.90;;;;;;5055572;28;20174;-90
2021/12/02 02:26:48;;;;;;;1.57;0.70;;;4.80;99.90;;;;;;5055532;28;20215;-90
2021/12/02 02:29:15;;;;;;;0.70;0.60;;;4.70;99.90;;;;;;5055273;28;20202;-90
2021/12/02 02:31:43;;;;;;;0.83;0.60;;;4.70;99.90;;;;;;5046913;28;20281;-89
2021/12/02 02:34:45;;;;;;;2.10;0.67;;;4.70;99.90;;;;;;5035640;28;20179;-90
2021/12/02 02:37:15;;;;;;;1.40;0.53;;;4.70;99.90;;;;;;5038413;28;20198;-90
2021/12/02 02:39:41;;;;;;;0.60;0.60;;;4.70;99.90;;;;;;5039493;28;20174;-89
2021/12/02 02:42:09;;;;;;;0.50;0.43;;;4.60;99.90;;;;;;5039838;28;20235;-90
2021/12/02 02:44:37;;;;;;;0.60;0.37;;;4.60;99.90;;;;;;5039702;28;20634;-90
2021/12/02 02:47:03;;;;;;;0.57;0.50;;;4.60;99.90;;;;;;5039180;28;20201;-90
2021/12/02 02:49:29;;;;;;;0.50;0.50;;;4.50;99.90;;;;;;5038852;28;20342;-90
2021/12/02 02:51:55;;;;;;;0.70;0.30;;;4.50;99.90;;;;;;5038963;28;20336;-90
2021/12/02 02:54:22;;;;;;;0.97;0.53;;;4.50;99.90;;;;;;5039373;28;20218;-90
2021/12/02 02:56:59;;;;;;;0.50;0.40;;;4.50;99.90;;;;;;5039305;28;20257;-90
2021/12/02 02:59:35;;;;;;;1.30;0.40;;;4.40;99.90;;;;;;5038897;28;20268;-90
2021/12/02 03:07:10;;;;;;;0.37;0.33;;;4.40;99.90;;;;;;5075671;28;20202;-90
2021/12/02 03:09:50;;;;;;;0.30;0.30;;;4.40;99.90;;;;;;5058813;28;20262;-90
2021/12/02 03:17:11;;;;;;;0.40;0.30;;;4.20;99.90;;;;;;5075344;28;20211;-90
2021/12/02 03:19:41;;;;;;;2.03;0.57;;;4.20;99.90;;;;;;5058429;28;20288;-89
2021/12/02 03:22:07;;;;;;;1.13;0.40;;;4.20;99.90;;;;;;5058963;28;20184;-90
2021/12/02 03:24:33;;;;;;;1.60;0.50;;;4.20;99.90;;;;;;5058661;28;20177;-90
2021/12/02 03:26:59;;;;;;;0.60;0.40;;;4.10;99.90;;;;;;5058394;28;20213;-90
2021/12/02 03:29:25;;;;;;;0.40;0.40;;;4.20;99.90;;;;;;5058451;28;20210;-90
2021/12/02 03:31:51;;;;;;;0.80;0.60;;;4.20;99.90;;;;;;5058469;28;20193;-90
2021/12/02 03:34:18;;;;;;;0.80;0.70;;;4.20;99.90;;;;;;5058808;28;20177;-90
2021/12/02 03:36:44;;;;;;;2.03;1.30;;;4.20;99.90;;;;;;5058650;28;20187;-89
2021/12/02 03:39:11;;;;;;;1.10;1.00;;;4.20;99.90;;;;;;5058205;28;20181;-90
2021/12/02 03:41:39;;;;;;;0.60;0.60;;;4.20;99.90;;;;;;5075200;28;20173;-90
2021/12/02 03:44:06;;;;;;;2.40;0.80;;;4.20;99.90;;;;;;5074814;28;20185;-90
2021/12/02 03:46:32;;;;;;;1.97;0.63;;;4.20;99.90;;;;;;5057647;28;20257;-90
2021/12/02 03:48:59;;;;;;;0.80;0.60;;;4.20;99.90;;;;;;5056869;28;20211;-90
2021/12/02 03:51:26;;;;;;;0.57;0.57;;;4.20;99.90;;;;;;5058374;28;20174;-90
2021/12/02 03:53:53;;;;;;;0.67;0.60;;;4.20;99.90;;;;;;5058200;28;20270;-90
2021/12/02 03:56:19;;;;;;;1.93;0.70;;;4.10;99.90;;;;;;5058246;28;20264;-90
2021/12/02 03:58:47;;;;;;;1.10;0.67;;;4.10;99.90;;;;;;5057798;28;20206;-90
2021/12/02 04:01:14;;;;;;;1.23;0.70;;;4.10;99.90;;;;;;5053507;28;20185;-90
2021/12/02 04:03:40;;;;;;;0.80;0.73;;;4.10;99.90;;;;;;5037825;28;20178;-90
2021/12/02 04:06:07;;;;;;;1.20;0.70;;;4.10;99.90;;;;;;5038076;28;20617;-90
2021/12/02 04:14:01;;;;;;;1.33;1.00;;;4.10;99.90;;;;;;5054238;28;20177;-90
2021/12/02 04:16:29;;;;;;;1.20;0.90;;;4.10;99.90;;;;;;5071117;28;20178;-90
2021/12/02 04:18:55;;;;;;;2.73;1.20;;;4.10;99.90;;;;;;5074078;28;20252;-90
2021/12/02 04:21:21;;;;;;;1.80;0.90;;;4.10;99.90;;;;;;5057360;28;20218;-89
2021/12/02 04:23:47;;;;;;;2.93;0.90;;;4.10;99.90;;;;;;5057721;28;20173;-90
2021/12/02 04:26:14;;;;;;;2.40;0.90;;;4.10;99.90;;;;;;5057423;28;20272;-90
2021/12/02 04:28:40;;;;;;;1.23;0.80;;;4.20;99.90;;;;;;5057131;28;20204;-90
2021/12/02 04:31:07;;;;;;;2.17;1.20;;;4.20;99.90;;;;;;5054310;28;20190;-90
2021/12/02 04:33:33;;;;;;;1.87;1.20;;;4.20;99.90;;;;;;5070540;28;20174;-90
2021/12/02 04:36:00;;;;;;;1.00;1.00;;;4.20;99.90;;;;;;5053801;28;20177;-90
2021/12/02 04:38:29;;;;;;;0.93;0.83;;;4.30;99.90;;;;;;5037191;28;20202;-90
2021/12/02 04:40:56;;;;;;;2.33;0.90;;;4.30;99.90;;;;;;5073847;28;20186;-90
2021/12/02 04:43:23;;;;;;;2.00;0.90;;;4.30;99.90;;;;;;5057213;28;20181;-90
2021/12/02 04:45:49;;;;;;;0.70;0.70;;;4.20;99.90;;;;;;5057263;28;20182;-90
2021/12/02 04:48:16;;;;;;;2.40;0.60;;;4.20;99.90;;;;;;5056630;28;20209;-90
2021/12/02 04:50:42;;;;;;;1.30;1.20;;;4.20;99.90;;;;;;5057000;28;20177;-90
2021/12/02 04:53:18;;;;;;;1.13;0.70;;;4.20;99.90;;;;;;5056985;28;20191;-90
2021/12/02 04:55:44;;;;;;;1.83;0.80;;;4.20;99.90;;;;;;5057073;28;20264;-90
2021/12/02 04:58:10;;;;;;;3.00;1.10;;;4.20;99.90;;;;;;5056252;28;20197;-90
2021/12/02 05:00:38;;;;;;;0.60;0.60;;;4.20;99.90;;;;;;5055713;28;20185;-90
2021/12/02 05:03:05;;;;;;;1.43;0.90;;;4.20;99.90;;;;;;5054891;28;20196;-90
2021/12/02 05:05:38;;;;;;;3.80;1.10;;;4.30;99.90;;;;;;5056977;28;20185;-90
2021/12/02 05:08:10;;;;;;;2.43;1.10;;;4.20;99.90;;;;;;5058748;28;20240;-91
2021/12/02 05:10:37;;;;;;;2.50;0.93;;;4.20;99.90;;;;;;5057578;28;20180;-90
2021/12/02 05:13:05;;;;;;;1.07;0.80;;;4.20;99.90;;;;;;5056791;28;20214;-90
2021/12/02 05:15:31;;;;;;;1.40;0.90;;;4.30;99.90;;;;;;5056409;28;20184;-90
2021/12/02 05:17:57;;;;;;;2.37;1.00;;;4.30;99.90;;;;;;5056171;28;20206;-90
2021/12/02 05:20:23;;;;;;;2.80;1.00;;;4.30;99.90;;;;;;5055969;28;20192;-90
2021/12/02 05:22:49;;;;;;;2.03;1.20;;;4.30;99.90;;;;;;5056524;28;20177;-90
2021/12/02 05:25:15;;;;;;;1.70;1.00;;;4.30;99.90;;;;;;5056510;28;20180;-90
2021/12/02 05:27:41;;;;;;;1.57;1.00;;;4.30;99.90;;;;;;5055955;28;20296;-90
2021/12/02 05:30:08;;;;;;;1.00;0.80;;;4.30;99.90;;;;;;5056307;28;20268;-90
2021/12/02 05:32:34;;;;;;;1.77;0.80;;;4.30;99.90;;;;;;5056477;28;20253;-90
2021/12/02 05:35:01;;;;;;;1.53;0.90;;;4.30;99.90;;;;;;5056477;28;20244;-90
2021/12/02 05:37:27;;;;;;;2.10;0.80;;;4.30;99.90;;;;;;5056274;28;20197;-90
2021/12/02 05:39:53;;;;;;;1.83;1.00;;;4.30;99.90;;;;;;5055804;28;20222;-90
2021/12/02 05:42:19;;;;;;;4.10;2.00;;;4.30;99.90;;;;;;5055871;28;20278;-90
2021/12/02 05:44:45;;;;;;;2.47;1.47;;;4.30;99.90;;;;;;5056306;28;20186;-90
2021/12/02 05:47:12;;;;;;;1.47;1.30;;;4.30;99.90;;;;;;5072467;28;20753;-90
2021/12/02 05:49:38;;;;;;;2.90;1.33;;;4.30;99.90;;;;;;5058635;28;20233;-90
2021/12/02 05:52:12;;;;;;;3.13;2.20;;;4.30;99.90;;;;;;5038235;28;20205;-90
2021/12/02 05:54:41;;;;;;;4.50;2.40;;;4.30;99.90;;;;;;5040227;28;20225;-90
2021/12/02 05:57:07;;;;;;;5.20;3.30;;;4.40;99.90;;;;;;5040604;28;20197;-90
2021/12/02 05:59:39;;;;;;;3.03;2.17;;;4.30;99.90;;;;;;5060894;28;20210;-90
2021/12/02 06:02:07;;;;;;;4.03;2.30;;;4.30;99.90;;;;;;5037121;28;20237;-90
2021/12/02 06:04:34;;;;;;;4.90;2.57;;;4.30;99.90;;;;;;5047560;28;20529;-90
2021/12/02 06:07:00;;;;;;;3.43;1.90;;;4.20;99.90;;;;;;5048173;28;20207;-90
2021/12/02 06:09:26;;;;;;;2.80;1.50;;;4.20;99.90;;;;;;5060117;28;20262;-91
2021/12/02 06:11:52;;;;;;;1.73;1.63;;;4.20;99.90;;;;;;5052746;28;20181;-91
2021/12/02 06:14:18;;;;;;;1.50;1.40;;;4.20;99.90;;;;;;5055313;28;20284;-91
2021/12/02 06:16:44;;;;;;;1.60;1.40;;;4.20;99.90;;;;;;5070416;28;20181;-91
2021/12/02 06:19:10;;;;;;;2.27;1.33;;;4.20;99.90;;;;;;5068209;28;20194;-91
2021/12/02 06:21:36;;;;;;;1.50;1.10;;;4.20;99.90;;;;;;5068067;28;20188;-91
2021/12/02 06:24:05;;;;;;;1.77;1.47;;;4.10;99.90;;;;;;5069810;28;20183;-90
2021/12/02 06:26:31;;;;;;;1.60;1.10;;;4.10;99.90;;;;;;5092791;28;20177;-92
2021/12/02 06:28:57;;;;;;;2.93;1.10;;;4.10;99.90;;;;;;5072772;28;20214;-91
2021/12/02 06:31:24;;;;;;;1.87;1.33;;;4.10;99.90;;;;;;5068251;28;20198;-90
2021/12/02 06:33:50;;;;;;;2.03;1.40;;;4.10;99.90;;;;;;5068041;28;20181;-91
2021/12/02 06:36:16;;;;;;;2.60;1.67;;;4.10;99.90;;;;;;5068236;28;20559;-91
2021/12/02 06:38:42;;;;;;;2.30;1.60;;;4.00;99.90;;;;;;5067739;28;20210;-91
2021/12/02 06:41:09;;;;;;;2.23;1.80;;;4.00;99.90;;;;;;5068443;28;20173;-90
2021/12/02 06:43:35;;;;;;;1.47;1.37;;;4.00;99.90;;;;;;5068375;28;20190;-90
2021/12/02 06:46:00;;;;;;;6.63;3.80;;;4.10;99.90;;;;;;5068009;28;20179;-89
2021/12/02 06:48:26;;;;;;;5.63;5.17;;;4.10;99.90;;;;;;5067802;28;20263;-91
2021/12/02 06:50:52;;;;;;;4.53;4.13;;;4.10;99.90;;;;;;5067606;28;20176;-91
2021/12/02 06:53:19;;;;;;;6.20;4.10;;;4.10;99.90;;;;;;5067908;28;20277;-91
2021/12/02 06:55:46;;;;;;;6.23;3.50;;;4.10;99.90;;;;;;5068141;28;20229;-91
2021/12/02 06:58:12;;;;;;;5.50;3.10;;;4.10;99.90;;;;;;5067986;28;20255;-91
2021/12/02 07:00:37;;;;;;;2.73;2.23;;;4.10;99.90;;;;;;5067847;28;20178;-91
2021/12/02 07:03:03;;;;;;;3.23;1.97;;;4.10;99.90;;;;;;5071627;28;20185;-91
2021/12/02 07:05:32;;;;;;;2.17;1.80;;;4.10;99.90;;;;;;5055494;28;20177;-91
2021/12/02 07:07:58;;;;;;;5.03;1.43;;;4.10;99.90;;;;;;5055132;28;20232;-91
2021/12/02 07:10:27;;;;;;;1.93;1.40;;;4.10;99.90;;;;;;5055673;28;20181;-92
2021/12/02 07:12:56;;;;;;;2.77;1.20;;;4.10;99.90;;;;;;5071195;28;20201;-91
2021/12/02 07:15:27;;;;;;;2.00;1.30;;;4.00;99.90;;;;;;5054634;28;20747;-91
2021/12/02 07:17:56;;;;;;;2.63;1.80;;;4.10;99.90;;;;;;5054589;28;20284;-91
2021/12/02 07:20:23;;;;;;;3.13;2.80;;;4.10;99.90;;;;;;5054144;28;20189;-91
2021/12/02 07:22:49;;;;;;;3.00;2.23;;;4.00;99.90;;;;;;5057111;28;20181;-91
2021/12/02 07:25:15;;;;;;;4.80;3.23;;;4.00;99.90;;;;;;5058347;28;20181;-90
2021/12/02 07:27:42;;;;;;;4.00;2.50;;;4.10;99.90;;;;;;5058244;28;20407;-91
2021/12/02 07:30:09;;;;;;;2.80;1.30;;;4.10;99.90;;;;;;5043859;28;20178;-91
2021/12/02 07:32:39;;;;;;;1.50;1.37;;;4.10;99.90;;;;;;5053802;28;20251;-89
2021/12/02 07:35:13;;;;;;;2.20;1.60;;;4.00;99.90;;;;;;5059155;28;20173;-91
2021/12/02 07:37:45;;;;;;;1.83;1.47;;;4.10;99.90;;;;;;5057950;28;20257;-91
2021/12/02 07:40:12;;;;;;;1.97;1.53;;;4.10;99.90;;;;;;5057821;28;20174;-91
2021/12/02 07:42:38;;;;;;;1.57;1.40;;;4.10;99.90;;;;;;5058102;28;20173;-91
2021/12/02 07:45:09;;;;;;;3.07;1.93;;;4.10;99.90;;;;;;5057852;28;20181;-91
2021/12/02 07:47:39;;;;;;;2.50;2.17;;;4.00;99.90;;;;;;5057590;28;20205;-91
2021/12/02 07:50:07;;;;;;;5.10;3.43;;;4.00;99.90;;;;;;5057744;28;20208;-91
2021/12/02 07:52:35;;;;;;;7.00;4.00;;;4.10;99.90;;;;;;5057772;28;20181;-90
2021/12/02 07:55:07;;;;;;;4.23;2.53;;;4.10;99.90;;;;;;5057709;28;20223;-90
2021/12/02 07:57:40;;;;;;;3.13;2.57;;;4.10;99.90;;;;;;5074142;28;20294;-90
2021/12/02 08:00:07;;;;;;;5.13;2.37;;;4.00;99.90;;;;;;5057424;28;20174;-91
2021/12/02 08:02:35;;;;;;;4.53;2.80;;;4.00;99.90;;;;;;5058451;28;20190;-90
2021/12/02 08:05:02;;;;;;;5.47;3.07;;;4.00;99.90;;;;;;5037672;28;20178;-91
2021/12/02 08:07:28;;;;;;;6.90;3.53;;;4.00;99.90;;;;;;5037512;28;20202;-91
2021/12/02 08:09:54;;;;;;;7.67;3.90;;;4.00;99.90;;;;;;5037104;28;20292;-91
2021/12/02 08:12:20;;;;;;;9.63;4.60;;;4.00;99.90;;;;;;5037563;28;20171;-90
2021/12/02 08:14:46;;;;;;;7.17;3.70;;;4.00;99.90;;;;;;5037073;28;20174;-90
2021/12/02 08:17:12;;;;;;;5.47;3.37;;;4.00;99.90;;;;;;5037532;28;20199;-90
2021/12/02 08:19:38;;;;;;;7.03;2.97;;;4.10;99.90;;;;;;5036906;28;20208;-91
2021/12/02 08:22:04;;;;;;;5.63;3.10;;;4.10;99.90;;;;;;5037255;28;20186;-91
2021/12/02 08:24:31;;;;;;;5.43;3.40;;;4.10;99.90;;;;;;5037335;28;20227;-91
2021/12/02 08:26:57;;;;;;;3.27;1.97;;;4.20;99.90;;;;;;5037611;28;20201;-91
2021/12/02 08:29:28;;;;;;;3.67;1.67;;;4.30;99.90;;;;;;5037089;28;20208;-90
2021/12/02 08:31:56;;;;;;;1.30;1.20;;;4.50;99.90;;;;;;5043892;28;20182;-91
2021/12/02 08:34:22;;;;;;;2.20;1.40;;;4.60;99.90;;;;;;5036099;28;20639;-91
2021/12/02 08:36:51;;;;;;;1.83;1.20;;;4.70;99.90;;;;;;5053186;28;20186;-91
2021/12/02 08:39:22;;;;;;;1.17;1.07;;;4.80;99.90;;;;;;5036960;28;20191;-91
2021/12/02 08:41:49;;;;;;;1.60;1.20;;;4.90;99.90;;;;;;5036761;28;20184;-91
2021/12/02 08:44:17;;;;;;;3.60;2.00;;;5.00;99.90;;;;;;5036857;28;20179;-91
2021/12/02 08:46:43;;;;;;;3.50;1.43;;;5.10;99.90;;;;;;5036679;28;20178;-91
2021/12/02 08:49:09;;;;;;;5.00;1.90;;;5.10;99.90;;;;;;5036692;28;20210;-91
2021/12/02 08:51:35;;;;;;;2.67;1.60;;;5.20;99.90;;;;;;5036589;28;20644;-91
2021/12/02 08:54:01;;;;;;;2.70;1.43;;;5.30;99.90;;;;;;5036602;28;20203;-91
2021/12/02 08:56:27;;;;;;;5.67;2.50;;;5.40;99.90;;;;;;5036940;28;20176;-90
2021/12/02 08:58:53;;;;;;;2.70;1.60;;;5.40;99.90;;;;;;5036966;28;20219;-91
2021/12/02 09:01:19;;;;;;;3.10;2.00;;;5.50;99.90;;;;;;5036861;28;20184;-91
2021/12/02 09:03:46;;;;;;;3.83;2.40;;;5.60;99.90;;;;;;5037119;28;20178;-91
2021/12/02 09:06:12;;;;;;;2.83;1.80;;;5.70;99.90;;;;;;5037142;28;20219;-91
2021/12/02 09:08:40;;;;;;;1.87;1.50;;;5.80;99.90;;;;;;5036565;28;20215;-91
2021/12/02 09:11:44;;;;;;;3.13;2.07;;;5.90;99.90;;;;;;5037029;28;20259;-90
2021/12/02 09:14:10;;;;;;;2.57;1.30;;;6.00;99.90;;;;;;5036526;28;20216;-91
2021/12/02 09:16:37;;;;;;;2.53;1.00;;;6.00;99.90;;;;;;5036412;28;20220;-90
2021/12/02 09:19:03;;;;;;;2.13;1.03;;;6.00;99.90;;;;;;5035867;28;20232;-90
2021/12/02 09:21:29;;;;;;;2.87;1.50;;;6.00;99.90;;;;;;5036560;28;20186;-90
2021/12/02 09:23:55;;;;;;;1.23;1.13;;;6.00;99.90;;;;;;5036722;28;20235;-91
2021/12/02 09:26:22;;;;;;;2.27;1.40;;;6.00;99.90;;;;;;5036336;28;20176;-90
2021/12/02 09:28:58;;;;;;;2.80;1.40;;;6.00;99.90;;;;;;5035838;28;20267;-91
2021/12/02 09:31:24;;;;;;;3.00;1.20;;;6.00;99.90;;;;;;5043047;28;20192;-90
2021/12/02 09:33:50;;;;;;;2.27;1.23;;;5.90;99.90;;;;;;5056497;28;20238;-90
2021/12/02 09:36:17;;;;;;;1.57;1.00;;;5.90;99.90;;;;;;5056470;28;20171;-90
2021/12/02 09:38:45;;;;;;;1.57;1.03;;;5.80;99.90;;;;;;5055052;28;20255;-89
2021/12/02 09:41:11;;;;;;;3.07;1.13;;;5.70;99.90;;;;;;5055802;28;20180;-89
2021/12/02 09:43:38;;;;;;;3.70;1.63;;;5.70;99.90;;;;;;5072593;28;20185;-89
2021/12/02 09:46:05;;;;;;;2.37;1.43;;;5.60;99.90;;;;;;5054708;28;20174;-89
2021/12/02 09:48:33;;;;;;;2.13;1.23;;;5.70;99.90;;;;;;5055552;28;20265;-90
2021/12/02 09:53:57;;;;;;;6.07;3.03;;;5.70;99.90;;;;;;5072806;28;20163;-90
2021/12/02 09:58:49;;;;;;;5.03;1.90;;;5.90;99.90;;;;;;5059706;28;20200;-89
2021/12/02 10:01:18;;;;;;;2.13;1.07;;;6.00;99.90;;;;;;5040139;28;20192;-90
2021/12/02 10:03:47;;;;;;;1.93;1.33;;;6.00;99.90;;;;;;5055763;28;20184;-91
2021/12/02 10:06:19;;;;;;;2.03;1.50;;;6.00;99.90;;;;;;5055877;28;20184;-91
2021/12/02 10:09:06;;;;;;;3.17;1.70;;;6.00;99.90;;;;;;5071606;28;20208;-90
2021/12/02 10:12:13;;;;;;;2.83;1.47;;;5.80;99.90;;;;;;5055782;28;20180;-91
2021/12/02 10:14:51;;;;;;;1.40;1.20;;;5.70;99.90;;;;;;5052665;28;20207;-91
2021/12/02 10:20:18;;;;;;;1.57;1.03;;;5.60;99.90;;;;;;5052925;28;20268;-91
2021/12/02 10:23:04;;;;;;;1.33;1.00;;;5.50;99.90;;;;;;5053054;28;20179;-90
2021/12/02 10:25:32;;;;;;;2.13;1.03;;;5.50;99.90;;;;;;5042187;28;20227;-91
2021/12/02 10:28:42;;;;;;;0.93;0.90;;;5.30;99.90;;;;;;5061064;28;20237;-90
2021/12/02 10:31:09;;;;;;;2.13;0.90;;;5.30;99.90;;;;;;5040476;28;20200;-91
2021/12/02 10:33:40;;;;;;;0.97;0.90;;;5.20;99.90;;;;;;5055964;28;20612;-90
2021/12/02 10:36:21;;;;;;;0.83;0.73;;;5.20;99.90;;;;;;5056424;28;20175;-90
2021/12/02 10:38:47;;;;;;;0.97;0.70;;;5.10;99.90;;;;;;5055551;28;20199;-90
2021/12/02 10:41:22;;;;;;;1.43;0.87;;;5.10;99.90;;;;;;5040868;28;20271;-90
2021/12/02 10:44:12;;;;;;;2.27;0.90;;;5.10;99.90;;;;;;5052136;28;20195;-90
2021/12/02 10:46:42;;;;;;;0.80;0.80;;;5.20;99.90;;;;;;5036335;28;20218;-89
2021/12/02 10:49:15;;;;;;;1.43;0.83;;;5.20;99.90;;;;;;5035791;28;20198;-89
2021/12/02 10:51:51;;;;;;;1.50;1.27;;;5.30;99.90;;;;;;5038473;28;20189;-90
2021/12/02 10:54:28;;;;;;;1.43;1.00;;;5.40;99.90;;;;;;5055991;28;20209;-89
2021/12/02 10:56:58;;;;;;;1.50;1.20;;;5.50;99.90;;;;;;5073517;28;20166;-89
2021/12/02 10:59:27;;;;;;;1.17;0.90;;;5.60;99.90;;;;;;5075612;28;20200;-89
2021/12/02 11:02:17;;;;;;;2.17;0.80;;;5.60;99.90;;;;;;5049585;28;20197;-90
2021/12/02 11:04:46;;;;;;;2.27;1.10;;;5.70;99.90;;;;;;5038980;28;20192;-90
2021/12/02 11:07:33;;;;;;;2.33;0.93;;;5.70;99.90;;;;;;5068670;28;20383;-89
2021/12/02 11:10:05;;;;;;;0.70;0.70;;;5.80;99.90;;;;;;5051045;28;20194;-90
2021/12/02 11:12:37;;;;;;;1.83;0.80;;;5.80;99.90;;;;;;5062941;28;20176;-90
2021/12/02 11:15:14;;;;;;;0.70;0.70;;;5.90;99.90;;;;;;5074260;28;20180;-89
2021/12/02 11:17:42;;;;;;;1.27;0.70;;;5.90;99.90;;;;;;5059103;28;20192;-89
2021/12/02 11:20:25;;;;;;;0.87;0.80;;;5.90;99.90;;;;;;5053555;28;20184;-90
2021/12/02 11:23:06;;;;;;;1.10;0.80;;;5.90;99.90;;;;;;5039723;28;20174;-90
2021/12/02 11:25:34;;;;;;;0.87;0.80;;;5.90;99.90;;;;;;5039827;28;20169;-90
2021/12/02 11:28:07;;;;;;;2.53;0.80;;;5.90;99.90;;;;;;5039277;28;22175;-90
2021/12/02 11:30:36;;;;;;;0.70;0.70;;;5.70;99.90;;;;;;5039262;28;20192;-90
2021/12/02 11:33:07;;;;;;;0.77;0.77;;;5.60;99.90;;;;;;5058517;28;20257;-89
2021/12/02 11:35:42;;;;;;;1.00;0.90;;;5.50;99.90;;;;;;5075599;28;20175;-90
2021/12/02 11:38:18;;;;;;;0.87;0.87;;;5.50;99.90;;;;;;5058199;28;20588;-90
2021/12/02 11:40:47;;;;;;;1.20;1.03;;;5.50;99.90;;;;;;5059927;28;20169;-90
2021/12/02 11:43:18;;;;;;;0.70;0.70;;;5.40;99.90;;;;;;5058794;28;20193;-90
2021/12/02 11:45:46;;;;;;;0.87;0.80;;;5.40;99.90;;;;;;5058669;28;20185;-89
2021/12/02 11:48:19;;;;;;;1.00;0.80;;;5.40;99.90;;;;;;5075380;28;20218;-90
2021/12/02 11:50:47;;;;;;;1.13;0.70;;;5.40;99.90;;;;;;5058366;28;20632;-90
2021/12/02 11:53:14;;;;;;;2.33;0.60;;;5.40;99.90;;;;;;5058215;28;20225;-90
2021/12/02 11:55:43;;;;;;;0.63;0.63;;;5.30;99.90;;;;;;5060034;28;20172;-90
2021/12/02 11:58:09;;;;;;;1.47;0.60;;;5.30;99.90;;;;;;5058867;28;20232;-90
2021/12/02 12:00:37;;;;;;;0.80;0.60;;;5.20;99.90;;;;;;5058024;28;20181;-90
2021/12/02 12:03:07;;;;;;;0.60;0.60;;;5.10;99.90;;;;;;5039006;28;20198;-91
2021/12/02 12:05:54;;;;;;;0.80;0.80;;;4.90;99.90;;;;;;5038712;28;20176;-90
2021/12/02 12:08:33;;;;;;;1.10;0.80;;;4.70;99.90;;;;;;5036638;28;20210;-90
2021/12/02 12:11:32;;;;;;;8.97;1.27;;;4.60;99.90;;;;;;5038024;28;20175;-90
2021/12/02 12:14:10;;;;;;;0.70;0.70;;;4.60;99.90;;;;;;5037515;28;20185;-90
2021/12/02 12:16:50;;;;;;;0.60;0.60;;;4.40;99.90;;;;;;5038302;28;20212;-90
2021/12/02 12:19:30;;;;;;;0.57;0.57;;;4.30;99.90;;;;;;5037770;28;20209;-90
2021/12/02 12:22:00;;;;;;;0.50;0.50;;;4.20;99.90;;;;;;5038396;28;20185;-90
2021/12/02 12:24:47;;;;;;;0.67;0.50;;;4.10;99.90;;;;;;5038380;28;20174;-90
2021/12/02 12:27:18;;;;;;;0.90;0.80;;;4.10;99.90;;;;;;5042962;28;20221;-89
2021/12/02 12:29:47;;;;;;;1.97;1.40;;;4.10;99.90;;;;;;5062107;28;20201;-90
2021/12/02 12:35:01;;;;;;;0.97;0.80;;;4.10;99.90;;;;;;5074344;28;20181;-90
2021/12/02 12:40:11;;;;;;;0.67;0.60;;;3.90;99.90;;;;;;5072062;28;20192;-90
2021/12/02 12:42:51;;;;;;;0.50;0.50;;;3.90;99.90;;;;;;5058183;28;20189;-90
2021/12/02 12:45:38;;;;;;;0.67;0.67;;;3.90;99.90;;;;;;5057971;28;20187;-90
2021/12/02 12:48:07;;;;;;;0.87;0.83;;;3.90;99.90;;;;;;5057765;28;20259;-90
2021/12/02 12:50:34;;;;;;;2.27;1.87;;;3.90;99.90;;;;;;5057859;28;20173;-91
2021/12/02 12:53:07;;;;;;;30.70;25.30;;;3.90;99.90;;;;;;5056990;28;20184;-90
2021/12/02 12:55:41;;;;;;;2.40;2.20;;;4.00;99.90;;;;;;5057385;28;20181;-91
2021/12/02 12:58:22;;;;;;;6.50;6.03;;;4.00;99.90;;;;;;5055115;28;20271;-90
2021/12/02 13:00:56;;;;;;;4.63;4.23;;;4.00;99.90;;;;;;5053422;28;20538;-91
2021/12/02 13:03:38;;;;;;;0.77;0.77;;;4.00;99.90;;;;;;5049932;28;20264;-90
2021/12/02 13:06:17;;;;;;;0.93;0.60;;;3.90;99.90;;;;;;5057906;28;20177;-90
2021/12/02 13:08:48;;;;;;;0.90;0.90;;;3.90;99.90;;;;;;5073837;28;20215;-90
2021/12/02 13:11:34;;;;;;;1.57;1.33;;;3.90;99.90;;;;;;5057183;28;20205;-90
2021/12/02 13:14:03;;;;;;;2.00;1.63;;;4.00;99.90;;;;;;5057110;28;20170;-91
2021/12/02 13:16:38;;;;;;;3.43;1.70;;;4.00;99.90;;;;;;5057188;28;20226;-91
2021/12/02 13:19:13;;;;;;;2.77;1.93;;;4.00;99.90;;;;;;5073347;28;20203;-90
2021/12/02 13:21:39;;;;;;;2.67;2.47;;;4.10;99.90;;;;;;5051467;28;20276;-90
2021/12/02 13:24:19;;;;;;;2.30;1.40;;;4.10;99.90;;;;;;5048156;28;20185;-90
2021/12/02 13:26:55;;;;;;;2.70;2.30;;;4.10;99.90;;;;;;5037549;28;20170;-90
2021/12/02 13:29:32;;;;;;;1.17;1.00;;;4.10;99.90;;;;;;5037430;28;20201;-90
2021/12/02 13:32:35;;;;;;;2.20;1.10;;;4.10;99.90;;;;;;5057017;28;20269;-90
2021/12/02 13:35:02;;;;;;;3.37;2.40;;;4.00;99.90;;;;;;5057021;28;20173;-91
2021/12/02 13:37:28;;;;;;;3.73;3.00;;;4.00;99.90;;;;;;5055987;28;20265;-91
2021/12/02 13:39:54;;;;;;;1.43;1.33;;;4.10;99.90;;;;;;5046038;28;20197;-90
2021/12/02 13:42:45;;;;;;;1.97;1.33;;;4.10;99.90;;;;;;5054101;28;20258;-90
2021/12/02 13:45:20;;;;;;;1.53;1.00;;;4.10;99.90;;;;;;5056889;28;20653;-90
2021/12/02 13:47:47;;;;;;;1.67;1.30;;;4.10;99.90;;;;;;5055504;28;20201;-90
2021/12/02 13:50:18;;;;;;;2.50;1.30;;;4.10;99.90;;;;;;5047183;28;20184;-90
2021/12/02 13:52:52;;;;;;;2.90;1.83;;;4.10;99.90;;;;;;5055915;28;20664;-90